Time;durP1;ratioP1;P1;durP2;ratioP2;P2;SDS_P1;SDS_P2;PMS_P1;PMS_P2;Temp;Humidity;BMP_temperature;BMP_pressure;BME280_temperature;BME280_humidity;BME280_pressure;Samples;Min_cycle;Max_cycle;Signal;HPM_P1;HPM_P2
2022/02/05 00:00:51;;;;;;;;;;;;;;;4.85;69.78;99940.75;4917880;29;19918;-88
2022/02/05 00:03:23;;;;;;;;;;;;;;;4.85;69.65;99934.63;4917837;29;19930;-87
2022/02/05 00:05:53;;;;;;;;;;;;;;;4.87;69.41;99938.09;4918008;29;19966;-88
2022/02/05 00:13:39;;;;;;;;;;;;;;;4.89;69.17;99942.41;4933313;29;19927;-92
2022/02/05 00:39:40;;;;;;;;;;;;;;;;;;;;;
2022/02/05 00:45:04;;;;;;;;;;;;;;;5.05;73.52;99990.28;4923817;29;20378;-88
2022/02/05 00:47:31;;;;;;;;;;;;;;;5.05;73.87;99994.69;4914967;29;20401;-87
2022/02/05 00:49:59;;;;;;;;;;;;;;;5.08;74.11;99999.91;4915622;29;19927;-87
2022/02/05 00:52:25;;;;;;;;;;;;;;;5.23;75.73;100002.28;4912029;29;19926;-87
2022/02/05 00:55:04;;;;;;;;;;;;;;;5.38;77.49;99997.63;4932906;29;19930;-89
2022/02/05 00:57:44;;;;;;;;;;;;;;;5.47;79.21;100002.69;4915074;29;20041;-88
2022/02/05 01:00:21;;;;;;;;;;;;;;;5.53;80.67;100001.72;4932798;29;19919;-92
2022/02/05 04:24:12;;;;;;;;;;;;;;;2.25;94.45;100218.31;5561212;23;20376;-85
2022/02/05 04:26:38;;;;;;;;;;;;;;;2.09;94.27;100220.97;4928681;29;19923;-85
2022/02/05 04:29:06;;;;;;;;;;;;;;;1.95;93.81;100226.22;4925494;29;19923;-87
2022/02/05 04:31:31;;;;;;;;;;;;;;;1.86;93.43;100228.81;4932910;29;19922;-88
2022/02/05 04:33:56;;;;;;;;;;;;;;;1.71;92.80;100228.81;4927485;29;20256;-87
2022/02/05 04:36:21;;;;;;;;;;;;;;;1.62;92.69;100227.94;4908385;29;19923;-87
2022/02/05 04:38:51;;;;;;;;;;;;;;;1.59;91.99;100225.31;4923597;29;19919;-89
2022/02/05 04:43:59;;;;;;;;;;;;;;;1.34;90.90;100227.06;4925922;29;19930;-86
2022/02/05 05:09:34;;;;;;;;;;;;;;;3.03;100.00;100231.16;4924276;29;20393;-89
2022/02/05 05:20:00;;;;;;;;;;;;;;;3.03;100.00;100236.38;4925190;29;20389;-90
2022/02/05 05:22:25;;;;;;;;;;;;;;;3.11;100.00;100238.09;4907666;29;19923;-94
2022/02/05 05:24:53;;;;;;;;;;;;;;;3.06;100.00;100248.56;4912195;29;19923;-89
2022/02/05 05:27:18;;;;;;;;;;;;;;;3.00;100.00;100256.44;4926919;29;19938;-90
2022/02/05 05:29:49;;;;;;;;;;;;;;;2.98;100.00;100248.59;4949696;29;19919;-90
2022/02/05 05:32:14;;;;;;;;;;;;;;;2.96;100.00;100255.59;4927314;29;19918;-90
2022/02/05 05:35:09;;;;;;;;;;;;;;;;;;;;;
2022/02/05 05:37:35;;;;;;;;;;;;;;;3.02;100.00;100254.72;4923191;29;19925;-95
2022/02/05 05:40:00;;;;;;;;;;;;;;;3.01;100.00;100259.06;4927197;29;20375;-91
2022/02/05 05:42:35;;;;;;;;;;;;;;;2.98;100.00;100261.69;4928749;29;20446;-91
2022/02/05 05:45:25;;;;;;;;;;;;;;;3.00;100.00;100252.13;4926785;29;19925;-88
2022/02/05 09:07:37;;;;;;;;;;;;;;;2.94;77.98;100359.47;4957633;29;20296;-83
2022/02/05 09:10:10;;;;;;;;;;;;;;;2.98;77.97;100368.19;4957604;28;19919;-83
2022/02/05 09:15:02;;;;;;;;;;;;;;;3.00;77.72;100367.31;4956317;29;19922;-88
2022/02/05 09:17:27;;;;;;;;;;;;;;;3.03;77.60;100377.78;4957420;28;19918;-83
2022/02/05 09:19:53;;;;;;;;;;;;;;;3.05;77.59;100369.91;4957600;29;20413;-84
2022/02/05 09:22:18;;;;;;;;;;;;;;;3.07;77.64;100373.41;4957084;29;19925;-84
2022/02/05 09:24:43;;;;;;;;;;;;;;;3.08;77.68;100364.69;4939777;29;20262;-84
2022/02/05 09:27:12;;;;;;;;;;;;;;;3.07;77.48;100363.78;4957344;29;20420;-83
2022/02/05 09:29:59;;;;;;;;;;;;;;;3.11;77.54;100371.63;4956102;29;20404;-88
2022/02/05 09:32:24;;;;;;;;;;;;;;;3.13;77.47;100373.38;4957045;29;19918;-90
2022/02/05 09:34:50;;;;;;;;;;;;;;;3.09;77.30;100377.75;4939740;29;20017;-84
2022/02/05 09:37:15;;;;;;;;;;;;;;;3.11;77.14;100371.63;4957100;29;19926;-84
2022/02/05 09:39:41;;;;;;;;;;;;;;;3.16;77.07;100377.72;4957356;29;20013;-85
2022/02/05 09:42:07;;;;;;;;;;;;;;;3.16;76.79;100382.97;4957035;29;19925;-84
2022/02/05 09:44:32;;;;;;;;;;;;;;;3.18;76.88;100396.94;4954985;29;19974;-88
2022/02/05 09:46:57;;;;;;;;;;;;;;;3.20;76.72;100403.03;4956953;29;19922;-84
2022/02/05 09:49:26;;;;;;;;;;;;;;;3.22;76.57;100411.75;4957067;29;19981;-84
2022/02/05 09:52:06;;;;;;;;;;;;;;;3.23;76.36;100408.28;4956865;29;20141;-85
2022/02/05 09:54:31;;;;;;;;;;;;;;;3.22;76.05;100403.91;4956446;29;19926;-84
2022/02/05 09:56:57;;;;;;;;;;;;;;;3.26;75.86;100409.13;4956667;29;19918;-86
2022/02/05 09:59:22;;;;;;;;;;;;;;;3.25;75.58;100398.66;4937837;29;20370;-84
2022/02/05 10:01:47;;;;;;;;;;;;;;;3.31;75.57;100410.88;4939101;29;19922;-87
2022/02/05 10:04:13;;;;;;;;;;;;;;;3.26;75.54;100416.97;4956405;29;20270;-87
2022/02/05 10:06:48;;;;;;;;;;;;;;;3.31;75.56;100414.34;4956414;29;19925;-85
2022/02/05 10:09:15;;;;;;;;;;;;;;;3.32;75.24;100418.72;4956005;28;20327;-85
2022/02/05 10:11:57;;;;;;;;;;;;;;;3.35;75.22;100418.72;4956335;28;19922;-90
2022/02/05 10:14:24;;;;;;;;;;;;;;;3.34;74.95;100419.59;4954967;29;19923;-87
2022/02/05 10:16:51;;;;;;;;;;;;;;;3.32;74.63;100423.97;4956261;29;19922;-84
2022/02/05 10:19:17;;;;;;;;;;;;;;;3.34;74.68;100419.59;4956457;29;19923;-86
2022/02/05 10:21:42;;;;;;;;;;;;;;;3.38;74.77;100426.56;4938608;29;19941;-85
2022/02/05 10:24:08;;;;;;;;;;;;;;;3.40;74.31;100423.94;4956256;29;20074;-85
2022/02/05 10:26:41;;;;;;;;;;;;;;;3.42;74.42;100424.81;4956048;29;19926;-87
2022/02/05 10:29:08;;;;;;;;;;;;;;;3.44;74.32;100425.66;4954204;29;19941;-86
2022/02/05 10:31:52;;;;;;;;;;;;;;;3.46;74.44;100423.91;4938789;29;19925;-93
2022/02/05 10:34:18;;;;;;;;;;;;;;;3.47;74.64;100425.66;4956158;29;19977;-87
2022/02/05 10:36:45;;;;;;;;;;;;;;;3.45;74.50;100412.56;4938485;29;19922;-85
2022/02/05 10:39:14;;;;;;;;;;;;;;;3.52;74.71;100409.91;4955735;28;20341;-88
2022/02/05 10:44:26;;;;;;;;;;;;;;;3.52;73.93;100423.00;4954678;29;19925;-85
2022/02/05 10:46:53;;;;;;;;;;;;;;;3.56;73.97;100414.28;4955977;29;19945;-85
2022/02/05 10:49:40;;;;;;;;;;;;;;;3.58;73.85;100417.75;4955942;29;19918;-92
2022/02/05 10:52:05;;;;;;;;;;;;;;;3.57;73.82;100410.75;4955850;29;19926;-88
2022/02/05 10:54:47;;;;;;;;;;;;;;;3.61;73.67;100413.38;4938149;29;20299;-90
2022/02/05 10:57:21;;;;;;;;;;;;;;;3.62;73.33;100408.97;4955814;29;19958;-85
2022/02/05 11:05:34;;;;;;;;;;;;;;;3.68;73.40;100408.97;4946176;29;19982;-86
2022/02/05 11:08:00;;;;;;;;;;;;;;;3.69;73.33;100410.72;4928523;29;19923;-92
2022/02/05 11:18:52;;;;;;;;;;;;;;;3.80;73.33;100414.16;4944737;29;19929;-88
2022/02/05 11:21:18;;;;;;;;;;;;;;;3.80;73.34;100410.66;4928396;29;19923;-86
2022/02/05 11:23:47;;;;;;;;;;;;;;;3.85;73.42;100416.75;4944991;29;19974;-86
2022/02/05 11:26:13;;;;;;;;;;;;;;;3.86;73.16;100420.22;4927289;29;19923;-86
2022/02/05 11:28:42;;;;;;;;;;;;;;;3.90;73.36;100414.97;4927493;29;19919;-88
2022/02/05 11:31:35;;;;;;;;;;;;;;;3.88;73.31;100421.09;4927157;29;19918;-85
2022/02/05 11:34:09;;;;;;;;;;;;;;;3.92;73.56;100425.44;4927825;29;19966;-85
2022/02/05 11:36:43;;;;;;;;;;;;;;;3.96;73.50;100430.66;4927940;29;20384;-90
2022/02/05 11:39:15;;;;;;;;;;;;;;;3.98;73.51;100433.28;4945334;29;20289;-85
2022/02/05 11:41:40;;;;;;;;;;;;;;;4.02;73.60;100428.88;4945037;29;20010;-91
2022/02/05 11:44:16;;;;;;;;;;;;;;;4.06;73.81;100425.38;4926796;29;20067;-86
2022/02/05 11:47:02;;;;;;;;;;;;;;;4.05;73.80;100432.34;4927736;29;19978;-87
2022/02/05 11:49:47;;;;;;;;;;;;;;;4.06;73.70;100431.50;4928003;29;19926;-87
2022/02/05 11:52:15;;;;;;;;;;;;;;;4.11;73.51;100436.72;4927624;29;19919;-87
2022/02/05 11:55:01;;;;;;;;;;;;;;;4.11;73.52;100434.94;4943994;29;19926;-86
2022/02/05 11:57:56;;;;;;;;;;;;;;;4.16;73.46;100435.81;4944942;29;19919;-86
2022/02/05 12:00:28;;;;;;;;;;;;;;;4.16;73.45;100433.19;4928159;29;19914;-91
2022/02/05 12:03:02;;;;;;;;;;;;;;;4.14;73.26;100421.81;4944797;29;20468;-88
2022/02/05 12:05:34;;;;;;;;;;;;;;;4.19;73.17;100409.53;4945786;29;19927;-90
2022/02/05 12:08:05;;;;;;;;;;;;;;;4.25;73.15;100407.78;4945003;29;20382;-89
2022/02/05 12:10:34;;;;;;;;;;;;;;;4.25;73.03;100405.16;4929119;29;20391;-86
2022/02/05 12:13:14;;;;;;;;;;;;;;;4.26;72.93;100401.63;4944994;29;19926;-91
2022/02/05 12:15:40;;;;;;;;;;;;;;;4.28;72.85;100395.50;4926580;29;20322;-88
2022/02/05 12:20:52;;;;;;;;;;;;;;;4.31;72.86;100394.63;4945965;29;19918;-87
2022/02/05 12:25:58;;;;;;;;;;;;;;;4.33;72.77;100392.84;4944723;29;20426;-86
2022/02/05 12:28:33;;;;;;;;;;;;;;;4.34;72.86;100394.56;4944753;29;19918;-87
2022/02/05 12:31:00;;;;;;;;;;;;;;;4.33;72.98;100388.44;4927548;29;19965;-86
2022/02/05 12:33:41;;;;;;;;;;;;;;;4.36;73.17;100387.56;4944583;29;19930;-91
2022/02/05 12:36:06;;;;;;;;;;;;;;;4.38;73.40;100374.44;4944365;28;19922;-91
2022/02/05 12:38:37;;;;;;;;;;;;;;;4.38;73.61;100375.31;4944537;29;19925;-86
2022/02/05 12:41:05;;;;;;;;;;;;;;;4.40;73.62;100386.66;4943571;29;19922;-86
2022/02/05 12:43:47;;;;;;;;;;;;;;;4.45;73.69;100386.63;4943876;29;19966;-90
2022/02/05 12:46:14;;;;;;;;;;;;;;;4.42;73.73;100392.78;4944557;29;19926;-91
2022/02/05 12:48:40;;;;;;;;;;;;;;;4.48;73.88;100387.47;4928204;29;20389;-88
2022/02/05 12:51:05;;;;;;;;;;;;;;;4.55;74.13;100391.78;4927636;29;19919;-86
2022/02/05 12:53:34;;;;;;;;;;;;;;;4.76;75.62;100391.63;4927819;29;19929;-86
2022/02/05 12:56:29;;;;;;;;;;;;;;;4.87;77.13;100403.75;4944417;29;19919;-85
2022/02/05 12:59:02;;;;;;;;;;;;;;;4.91;78.97;100400.22;4926081;29;20117;-86
2022/02/05 13:01:27;;;;;;;;;;;;;;;4.94;80.26;100406.31;4944404;29;20009;-86
2022/02/05 13:04:13;;;;;;;;;;;;;;;5.00;80.91;100403.63;4926988;29;20010;-86
2022/02/05 13:06:38;;;;;;;;;;;;;;;4.93;81.79;100402.81;4926390;29;19922;-86
2022/02/05 13:09:16;;;;;;;;;;;;;;;4.80;82.77;100393.31;4945268;28;19919;-86
2022/02/05 13:11:42;;;;;;;;;;;;;;;4.67;83.65;100392.56;4944256;29;19951;-86
2022/02/05 13:14:07;;;;;;;;;;;;;;;4.52;84.45;100394.44;4942049;29;19919;-87
2022/02/05 13:16:37;;;;;;;;;;;;;;;4.38;85.54;100387.56;4927306;29;19922;-91
2022/02/05 13:19:20;;;;;;;;;;;;;;;4.24;86.62;100388.50;4927112;29;19927;-94
2022/02/05 13:36:17;;;;;;;;;;;;;;;5.37;100.00;100364.66;4944120;29;19929;-87
2022/02/05 13:39:03;;;;;;;;;;;;;;;5.47;100.00;100354.91;4927566;29;19922;-92
2022/02/05 13:41:40;;;;;;;;;;;;;;;5.56;100.00;100356.56;4927026;29;19969;-88
2022/02/05 13:44:05;;;;;;;;;;;;;;;5.63;100.00;100366.09;4943934;29;19919;-90
2022/02/05 13:46:37;;;;;;;;;;;;;;;5.72;100.00;100365.09;4927785;29;19982;-89
2022/02/05 13:49:30;;;;;;;;;;;;;;;;;;;;;
2022/02/05 13:52:15;;;;;;;;;;;;;;;5.83;100.00;100366.69;4947602;29;19923;-87
2022/02/05 13:54:43;;;;;;;;;;;;;;;5.91;100.00;100369.22;4931767;29;19918;-93
2022/02/05 13:57:15;;;;;;;;;;;;;;;5.92;100.00;100367.44;4931138;29;19922;-93
2022/02/05 13:59:41;;;;;;;;;;;;;;;5.98;100.00;100365.66;4946921;29;20441;-90
2022/02/05 14:02:13;;;;;;;;;;;;;;;6.05;100.00;100365.53;4948610;29;19949;-87
2022/02/05 14:04:38;;;;;;;;;;;;;;;6.11;100.00;100370.69;4931420;29;19927;-89
2022/02/05 14:07:04;;;;;;;;;;;;;;;6.12;100.00;100364.56;4929687;29;20366;-93
2022/02/05 14:09:32;;;;;;;;;;;;;;;6.17;100.00;100354.81;4946639;28;20005;-86
2022/02/05 14:12:11;;;;;;;;;;;;;;;6.21;100.00;100353.91;4929558;29;19923;-86
2022/02/05 14:14:39;;;;;;;;;;;;;;;6.25;100.00;100341.53;4929237;29;19962;-87
2022/02/05 14:17:16;;;;;;;;;;;;;;;6.24;100.00;100332.78;4928823;29;19938;-87
2022/02/05 14:19:42;;;;;;;;;;;;;;;6.30;100.00;100334.44;4947457;29;19919;-87
2022/02/05 14:22:17;;;;;;;;;;;;;;;6.28;100.00;100331.81;4930118;29;19922;-87
2022/02/05 14:24:43;;;;;;;;;;;;;;;6.33;100.00;100332.66;4930112;29;19922;-86
2022/02/05 14:27:13;;;;;;;;;;;;;;;6.00;100.00;100327.03;4929653;29;19926;-87
2022/02/05 14:32:27;;;;;;;;;;;;;;;4.88;100.00;100339.84;4946987;29;19922;-88
2022/02/05 14:35:26;;;;;;;;;;;;;;;4.87;100.00;100347.75;4929229;29;20266;-87
2022/02/05 14:40:46;;;;;;;;;;;;;;;4.51;97.86;100353.31;4947168;29;19973;-87
2022/02/05 14:43:13;;;;;;;;;;;;;;;4.40;96.51;100362.16;4946605;29;19914;-86
2022/02/05 14:45:41;;;;;;;;;;;;;;;4.32;95.37;100371.00;4928101;29;20286;-87
2022/02/05 14:48:07;;;;;;;;;;;;;;;4.38;95.11;100362.19;4946289;29;19918;-87
2022/02/05 14:50:32;;;;;;;;;;;;;;;4.29;94.23;100375.38;4949050;29;20298;-87
2022/02/05 14:52:57;;;;;;;;;;;;;;;4.24;93.49;100375.41;4930322;29;19977;-86
2022/02/05 14:55:23;;;;;;;;;;;;;;;4.21;92.84;100358.81;4947139;29;20009;-94
2022/02/05 14:57:48;;;;;;;;;;;;;;;4.13;92.01;100358.88;4931101;29;20382;-92
2022/02/05 15:00:14;;;;;;;;;;;;;;;4.06;91.55;100354.56;4948206;28;19923;-90
2022/02/05 15:02:40;;;;;;;;;;;;;;;4.06;90.77;100352.81;4929603;29;19919;-89
2022/02/05 15:05:15;;;;;;;;;;;;;;;4.02;90.38;100350.22;4942740;29;19985;-91
2022/02/05 15:07:41;;;;;;;;;;;;;;;3.96;89.87;100361.63;4947033;29;19934;-88
2022/02/05 15:10:07;;;;;;;;;;;;;;;3.95;89.35;100349.38;4946637;28;19929;-88
2022/02/05 15:12:33;;;;;;;;;;;;;;;3.87;88.76;100345.94;4946737;29;20005;-85
2022/02/05 15:14:58;;;;;;;;;;;;;;;3.85;88.44;100347.72;4944108;29;20092;-89
2022/02/05 15:17:24;;;;;;;;;;;;;;;3.90;88.29;100343.31;4945956;29;19973;-85
2022/02/05 15:19:49;;;;;;;;;;;;;;;3.81;87.59;100342.50;4946684;29;19922;-90
2022/02/05 15:22:14;;;;;;;;;;;;;;;3.84;87.26;100346.84;4944252;29;19949;-90
2022/02/05 15:24:40;;;;;;;;;;;;;;;3.67;87.34;100344.34;4946617;29;20030;-89
2022/02/05 15:27:07;;;;;;;;;;;;;;;3.76;86.95;100348.63;4945588;29;19927;-87
2022/02/05 15:29:32;;;;;;;;;;;;;;;3.79;86.80;100354.72;4944457;29;19925;-87
2022/02/05 15:31:59;;;;;;;;;;;;;;;3.71;86.41;100345.19;4945726;29;19918;-86
2022/02/05 15:34:24;;;;;;;;;;;;;;;3.76;86.35;100359.97;4945618;29;19965;-89
2022/02/05 15:36:55;;;;;;;;;;;;;;;3.72;86.12;100353.03;4945823;29;19961;-87
2022/02/05 15:44:30;;;;;;;;;;;;;;;3.57;85.91;100348.72;4944300;29;19974;-85
2022/02/05 15:46:55;;;;;;;;;;;;;;;3.55;85.80;100352.25;4945216;29;19919;-85
2022/02/05 15:49:21;;;;;;;;;;;;;;;3.59;85.85;100356.59;4945522;29;19922;-86
2022/02/05 15:51:46;;;;;;;;;;;;;;;3.58;85.80;100354.84;4944965;29;19919;-92
2022/02/05 15:54:13;;;;;;;;;;;;;;;3.49;85.66;100354.91;4944766;29;19930;-88
2022/02/05 15:59:16;;;;;;;;;;;;;;;3.37;85.79;100355.84;4943186;29;19962;-91
2022/02/05 16:01:42;;;;;;;;;;;;;;;3.44;85.54;100358.41;4945124;29;19934;-91
2022/02/05 16:04:07;;;;;;;;;;;;;;;3.47;85.63;100351.44;4946182;29;19922;-93
2022/02/05 16:06:36;;;;;;;;;;;;;;;3.37;85.20;100348.84;4928259;29;19922;-86
2022/02/05 16:09:02;;;;;;;;;;;;;;;3.38;85.52;100353.22;4946477;28;19982;-88
2022/02/05 16:11:28;;;;;;;;;;;;;;;3.38;85.38;100347.09;4944356;28;20049;-88
2022/02/05 16:13:54;;;;;;;;;;;;;;;3.41;85.09;100353.16;4943327;29;20474;-90
2022/02/05 16:16:20;;;;;;;;;;;;;;;3.40;84.85;100337.50;4945385;29;20006;-85
2022/02/05 16:18:45;;;;;;;;;;;;;;;3.33;84.80;100331.38;4927175;29;19926;-89
2022/02/05 16:21:11;;;;;;;;;;;;;;;3.35;84.69;100326.13;4943659;29;19995;-84
2022/02/05 16:23:36;;;;;;;;;;;;;;;3.28;84.55;100328.78;4943476;29;19927;-89
2022/02/05 16:26:02;;;;;;;;;;;;;;;3.24;84.59;100332.31;4941924;29;19923;-91
2022/02/05 16:28:30;;;;;;;;;;;;;;;3.30;84.25;100341.88;4926738;29;20013;-86
2022/02/05 16:30:58;;;;;;;;;;;;;;;3.26;84.46;100342.78;4944129;29;19990;-91
2022/02/05 16:33:25;;;;;;;;;;;;;;;3.28;84.35;100346.25;4928296;29;19923;-89
2022/02/05 16:36:00;;;;;;;;;;;;;;;3.27;84.21;100347.13;4927821;29;19926;-89
2022/02/05 16:38:30;;;;;;;;;;;;;;;3.17;83.93;100333.19;4943171;29;19965;-87
2022/02/05 16:41:13;;;;;;;;;;;;;;;3.21;83.87;100344.56;4940672;29;19929;-87
2022/02/05 16:43:39;;;;;;;;;;;;;;;3.16;83.80;100335.81;4942382;29;19974;-90
2022/02/05 16:46:09;;;;;;;;;;;;;;;3.20;83.35;100338.41;4926417;29;20401;-89
2022/02/05 16:48:35;;;;;;;;;;;;;;;3.11;83.05;100321.88;4944190;29;19918;-90
2022/02/05 16:51:01;;;;;;;;;;;;;;;3.11;83.16;100327.13;4945417;29;20427;-90
2022/02/05 16:53:26;;;;;;;;;;;;;;;3.11;82.95;100334.97;4927344;29;19919;-89
2022/02/05 16:55:52;;;;;;;;;;;;;;;3.09;83.23;100329.75;4945440;29;19925;-89
2022/02/05 16:58:17;;;;;;;;;;;;;;;3.09;83.14;100330.63;4942666;29;19923;-86
2022/02/05 17:00:42;;;;;;;;;;;;;;;3.09;83.47;100329.75;4925719;29;20359;-89
2022/02/05 17:03:08;;;;;;;;;;;;;;;3.09;83.12;100335.88;4926624;29;19925;-89
2022/02/05 17:05:41;;;;;;;;;;;;;;;3.04;83.04;100336.75;4944619;29;19925;-86
2022/02/05 17:08:08;;;;;;;;;;;;;;;2.99;83.12;100335.91;4944836;28;19922;-86
2022/02/05 17:10:36;;;;;;;;;;;;;;;3.01;82.92;100337.63;4944363;29;19926;-89
2022/02/05 17:13:04;;;;;;;;;;;;;;;3.06;83.04;100346.34;4926210;29;19930;-85
2022/02/05 17:15:29;;;;;;;;;;;;;;;2.97;82.81;100346.38;4925648;29;19918;-90
2022/02/05 17:18:06;;;;;;;;;;;;;;;3.03;82.80;100341.13;4927531;29;19930;-87
2022/02/05 17:20:32;;;;;;;;;;;;;;;3.00;82.81;100343.75;4943625;29;20366;-88
2022/02/05 17:22:58;;;;;;;;;;;;;;;2.99;82.75;100334.13;4928817;29;20013;-87
2022/02/05 17:25:29;;;;;;;;;;;;;;;2.94;82.73;100335.91;4947965;29;19922;-87
2022/02/05 17:27:54;;;;;;;;;;;;;;;2.95;82.45;100331.53;4930302;29;19918;-86
2022/02/05 17:30:22;;;;;;;;;;;;;;;2.92;82.48;100329.81;4944750;29;19923;-86
2022/02/05 17:32:47;;;;;;;;;;;;;;;2.85;82.11;100330.69;4944932;29;19919;-87
2022/02/05 17:35:13;;;;;;;;;;;;;;;2.96;82.13;100336.75;4946838;29;20286;-86
2022/02/05 17:37:39;;;;;;;;;;;;;;;2.91;81.92;100331.53;4946078;29;19922;-85
2022/02/05 17:40:05;;;;;;;;;;;;;;;2.88;81.98;100325.44;4929350;29;19925;-90
2022/02/05 17:42:31;;;;;;;;;;;;;;;2.89;82.00;100327.19;4947585;29;19922;-86
2022/02/05 17:44:56;;;;;;;;;;;;;;;2.86;81.67;100327.22;4929244;29;19918;-88
2022/02/05 17:47:22;;;;;;;;;;;;;;;2.83;81.58;100322.84;4946677;29;20944;-87
2022/02/05 17:49:48;;;;;;;;;;;;;;;2.81;81.90;100321.97;4930707;29;19919;-86
2022/02/05 17:52:13;;;;;;;;;;;;;;;2.84;81.68;100319.34;4930311;29;19970;-85
2022/02/05 17:54:40;;;;;;;;;;;;;;;2.84;81.44;100329.81;4929708;29;20021;-85
2022/02/05 17:57:05;;;;;;;;;;;;;;;2.86;81.21;100328.06;4947107;29;19918;-85
2022/02/05 17:59:31;;;;;;;;;;;;;;;2.83;81.12;100329.84;4945746;29;20382;-85
2022/02/05 18:01:56;;;;;;;;;;;;;;;2.84;81.06;100337.69;4930373;29;19923;-86
2022/02/05 18:04:23;;;;;;;;;;;;;;;2.85;81.10;100338.53;4945457;29;19926;-87
2022/02/05 18:06:52;;;;;;;;;;;;;;;2.84;80.58;100332.44;4946356;29;19930;-87
2022/02/05 18:09:49;;;;;;;;;;;;;;;2.85;80.60;100335.94;4930170;29;19960;-86
2022/02/05 18:12:20;;;;;;;;;;;;;;;2.80;80.41;100343.78;4929162;29;19925;-90
2022/02/05 18:15:03;;;;;;;;;;;;;;;2.78;80.37;100334.22;4945707;29;19923;-85
2022/02/05 18:17:28;;;;;;;;;;;;;;;2.75;80.41;100335.06;4928358;29;19918;-89
2022/02/05 18:19:55;;;;;;;;;;;;;;;2.70;80.08;100337.69;4947027;29;19918;-85
2022/02/05 18:22:21;;;;;;;;;;;;;;;2.74;80.12;100338.56;4928583;29;19926;-87
2022/02/05 18:24:46;;;;;;;;;;;;;;;2.74;80.02;100338.56;4929139;29;19914;-86
2022/02/05 18:27:12;;;;;;;;;;;;;;;2.77;79.94;100333.31;4945509;29;19961;-84
2022/02/05 18:29:37;;;;;;;;;;;;;;;2.75;79.79;100335.06;4945380;29;19922;-85
2022/02/05 18:32:02;;;;;;;;;;;;;;;2.68;79.78;100323.75;4945694;29;19958;-89
2022/02/05 18:34:28;;;;;;;;;;;;;;;2.70;79.78;100329.84;4945371;29;20247;-88
2022/02/05 18:36:54;;;;;;;;;;;;;;;2.73;79.64;100327.22;4942342;29;20011;-87
2022/02/05 18:39:25;;;;;;;;;;;;;;;2.75;79.51;100318.50;4926385;29;20085;-85
2022/02/05 18:41:51;;;;;;;;;;;;;;;2.73;79.48;100315.91;4945113;29;19926;-89
2022/02/05 18:44:17;;;;;;;;;;;;;;;2.71;79.68;100315.00;4942864;29;19922;-86
2022/02/05 18:46:42;;;;;;;;;;;;;;;2.71;79.59;100322.88;4941882;29;19919;-91
2022/02/05 18:49:08;;;;;;;;;;;;;;;2.70;79.50;100321.13;4929554;29;19919;-88
2022/02/05 18:51:33;;;;;;;;;;;;;;;2.59;79.87;100334.22;4928772;29;19919;-88
2022/02/05 18:53:59;;;;;;;;;;;;;;;2.63;80.31;100328.13;4942714;29;19977;-88
2022/02/05 18:56:25;;;;;;;;;;;;;;;2.60;80.42;100341.22;4946715;29;20386;-86
2022/02/05 18:58:51;;;;;;;;;;;;;;;2.62;80.60;100341.22;4941920;29;19974;-86
2022/02/05 19:15:07;;;;;;;;;;;;;;;2.58;80.58;100319.41;4943955;29;19925;-87
2022/02/05 19:20:12;;;;;;;;;;;;;;;2.56;80.24;100317.69;4947884;29;19922;-85
2022/02/05 19:22:37;;;;;;;;;;;;;;;2.56;80.01;100322.91;4947208;29;19923;-87
2022/02/05 19:25:03;;;;;;;;;;;;;;;2.53;79.88;100308.94;4947504;29;19915;-89
2022/02/05 19:27:29;;;;;;;;;;;;;;;2.55;79.73;100311.56;4944814;29;19919;-94
2022/02/05 19:29:55;;;;;;;;;;;;;;;2.51;79.59;100307.22;4940114;29;19922;-90
2022/02/05 19:32:21;;;;;;;;;;;;;;;2.50;79.42;100314.19;4925661;29;19926;-92
2022/02/05 19:34:46;;;;;;;;;;;;;;;2.54;79.34;100312.44;4942819;29;19925;-88
2022/02/05 19:37:12;;;;;;;;;;;;;;;2.49;79.36;100311.56;4928625;29;19923;-91
2022/02/05 19:39:37;;;;;;;;;;;;;;;2.50;79.51;100319.41;4934916;29;19918;-92
2022/02/05 19:42:02;;;;;;;;;;;;;;;2.50;79.38;100319.41;4931576;29;19918;-88
2022/02/05 19:44:35;;;;;;;;;;;;;;;2.49;79.31;100315.06;4926495;29;19927;-90
2022/02/05 19:47:09;;;;;;;;;;;;;;;2.49;79.14;100306.31;4947061;29;19918;-93
2022/02/05 19:49:34;;;;;;;;;;;;;;;2.52;79.01;100306.31;4927099;29;19922;-88
2022/02/05 19:52:00;;;;;;;;;;;;;;;2.49;78.97;100308.94;4945294;29;19949;-89
2022/02/05 19:54:26;;;;;;;;;;;;;;;2.48;79.04;100305.47;4926083;29;19926;-91
2022/02/05 19:56:51;;;;;;;;;;;;;;;2.51;79.07;100315.06;4926696;29;19973;-87
2022/02/05 19:59:24;;;;;;;;;;;;;;;2.51;78.90;100308.06;4924999;29;19982;-88
2022/02/05 20:01:50;;;;;;;;;;;;;;;2.50;78.71;100311.56;4947150;29;19930;-88
2022/02/05 20:04:21;;;;;;;;;;;;;;;2.50;78.63;100318.53;4945863;29;19937;-86
2022/02/05 20:06:57;;;;;;;;;;;;;;;2.51;78.79;100304.59;4927894;29;20359;-90
2022/02/05 20:09:22;;;;;;;;;;;;;;;2.52;78.74;100314.16;4944284;29;19930;-89
2022/02/05 20:11:47;;;;;;;;;;;;;;;2.54;78.82;100315.06;4927456;29;19919;-88
2022/02/05 20:14:13;;;;;;;;;;;;;;;2.55;78.67;100311.56;4941855;29;19929;-89
2022/02/05 20:16:38;;;;;;;;;;;;;;;2.55;78.47;100311.56;4927171;29;20045;-87
2022/02/05 20:19:03;;;;;;;;;;;;;;;2.56;78.35;100302.84;4948082;29;19985;-86
2022/02/05 20:21:34;;;;;;;;;;;;;;;2.57;78.36;100309.81;4929335;29;19926;-86
2022/02/05 20:24:03;;;;;;;;;;;;;;;2.57;78.43;100315.06;4945334;29;19923;-89
2022/02/05 20:26:30;;;;;;;;;;;;;;;2.60;78.36;100320.28;4946275;29;19918;-90
2022/02/05 20:28:59;;;;;;;;;;;;;;;2.59;78.40;100317.69;4942298;29;19927;-90
2022/02/05 20:31:26;;;;;;;;;;;;;;;2.57;78.53;100307.22;4947297;29;19918;-92
2022/02/05 20:33:55;;;;;;;;;;;;;;;2.58;78.32;100302.84;4925840;29;20382;-90
2022/02/05 20:36:36;;;;;;;;;;;;;;;;;;;;;
2022/02/05 20:39:23;;;;;;;;;;;;;;;;;;;;;
2022/02/05 20:41:50;;;;;;;;;;;;;;;2.59;78.18;100305.44;4948788;29;19923;-91
2022/02/05 20:44:15;;;;;;;;;;;;;;;2.61;78.00;100300.22;4926375;29;19934;-84
2022/02/05 20:46:42;;;;;;;;;;;;;;;2.58;77.90;100284.53;4944502;29;19923;-90
2022/02/05 20:49:10;;;;;;;;;;;;;;;2.60;77.71;100294.13;4929427;29;19923;-86
2022/02/05 20:51:36;;;;;;;;;;;;;;;2.87;78.06;100284.44;4926739;29;20485;-82
2022/02/05 20:54:13;;;;;;;;;;;;;;;2.73;78.37;100285.34;4945408;29;20417;-93
2022/02/05 20:56:39;;;;;;;;;;;;;;;2.64;78.38;100285.38;4948403;29;19919;-84
2022/02/05 20:59:04;;;;;;;;;;;;;;;2.60;78.19;100285.38;4949959;29;19930;-86
2022/02/05 21:01:30;;;;;;;;;;;;;;;2.63;77.98;100286.28;4953451;28;19925;-83
2022/02/05 21:04:00;;;;;;;;;;;;;;;2.60;78.05;100283.66;4953913;28;20017;-88
2022/02/05 21:06:26;;;;;;;;;;;;;;;2.66;77.94;100288.84;4952037;29;19926;-82
2022/02/05 21:08:54;;;;;;;;;;;;;;;2.61;77.49;100287.13;4956673;29;19918;-85
2022/02/05 21:11:19;;;;;;;;;;;;;;;2.63;77.39;100278.41;4953565;29;19919;-84
2022/02/05 21:13:44;;;;;;;;;;;;;;;2.66;77.22;100273.16;4953189;28;19923;-90
2022/02/05 21:16:11;;;;;;;;;;;;;;;2.69;77.10;100275.75;4936542;29;19946;-84
2022/02/05 21:18:37;;;;;;;;;;;;;;;2.69;76.79;100270.53;4931787;29;19932;-88
2022/02/05 21:21:06;;;;;;;;;;;;;;;2.66;76.84;100267.06;4942070;29;20374;-93
2022/02/05 21:23:31;;;;;;;;;;;;;;;2.68;76.60;100274.03;4941133;29;19918;-86
2022/02/05 21:25:59;;;;;;;;;;;;;;;2.67;76.56;100279.28;4953383;28;20410;-88
2022/02/05 21:28:29;;;;;;;;;;;;;;;2.70;76.83;100279.28;4940780;29;19938;-84
2022/02/05 21:31:05;;;;;;;;;;;;;;;2.71;76.71;100273.13;4942288;29;20344;-85
2022/02/05 21:36:14;;;;;;;;;;;;;;;2.57;84.33;100273.19;4952418;28;19926;-88
2022/02/05 21:38:40;;;;;;;;;;;;;;;2.72;84.12;100267.91;4953676;28;19919;-84
2022/02/05 21:41:05;;;;;;;;;;;;;;;2.75;83.21;100271.41;4933974;29;19950;-86
2022/02/05 21:43:31;;;;;;;;;;;;;;;2.76;82.31;100266.16;4934287;29;20006;-91
2022/02/05 21:45:59;;;;;;;;;;;;;;;2.78;81.51;100266.16;4933577;29;20398;-87
2022/02/05 21:48:24;;;;;;;;;;;;;;;2.99;81.16;100270.44;4932938;29;19966;-88
2022/02/05 21:50:52;;;;;;;;;;;;;;;2.90;80.76;100260.88;4949411;29;19966;-91
2022/02/05 21:53:19;;;;;;;;;;;;;;;2.86;80.17;100264.38;4930028;29;20294;-91
2022/02/05 21:55:46;;;;;;;;;;;;;;;2.87;79.80;100266.09;4946989;28;19930;-85
2022/02/05 21:58:14;;;;;;;;;;;;;;;2.90;79.37;100266.09;4931798;29;19993;-88
2022/02/05 22:00:46;;;;;;;;;;;;;;;2.88;78.87;100263.47;4948910;28;19919;-88